Capt. Ted — WDD6210 — position and weather

sailwx.info

Track history (hours):
 
Tides and Currents Weather Stations Pressure Air Temp Water Temp Dewpoint Dewpoint Depression Visibility Wind Speed Wind Dir Waves Ship Positions

Capt. Ted

Owner: Salisbury Towing Corporation, Havre de Grace, MD. More information available from US FCC via Universal Licensing System and Coast Guard Vessel Documentation Center.

Last reported at 2017-Jan-15 11:19 UTC. Time now 2017-Jan-17 17:02 UTC.
Position N 37°58' W 076°18'.

Length 32 m; draft 2.8 m.

Type: Tug. MMSI: 367169710.

Date/timePositionNaut miles runAvg speedWind from/ knotsBaromVisibWave heightAir tempDewpointWater temp
2017-Jan-15 11:19N 37°58' W 076°18'6 7.6
2017-Jan-15 10:33N 38°01' W 076°23'7 7.4
2017-Jan-15 09:33N 38°06' W 076°31'2 0.1
2017-Jan-14 07:27N 38°07' W 076°33'6 6.2
2017-Jan-14 06:33N 38°04' W 076°27'7 6.2
2017-Jan-14 05:27N 38°00' W 076°20'  
2017-Jan-11 11:30N 37°59' W 076°19'10 9.0
2017-Jan-11 10:26N 38°04' W 076°29'5 0.1
2017-Jan-09 23:09N 38°08' W 076°33'5 6.8
2017-Jan-09 22:25N 38°05' W 076°28'6 6.7
2017-Jan-09 21:30N 38°01' W 076°22'  
2017-Jan-06 01:23N 37°58' W 076°18'6 7.6
2017-Jan-06 00:33N 38°02' W 076°25'  
Track history (hours):
 
Tides and Currents Weather Stations Pressure Air Temp Water Temp Dewpoint Dewpoint Depression Visibility Wind Speed Wind Dir Waves Ship Positions

Capt. Ted

Owner: Salisbury Towing Corporation, Havre de Grace, MD. More information available from US FCC via Universal Licensing System and Coast Guard Vessel Documentation Center.

Last reported at 2017-Jan-15 11:19 UTC. Time now 2017-Jan-17 17:02 UTC.
Position N 37°58' W 076°18'.

Length 32 m; draft 2.8 m.

Type: Tug. MMSI: 367169710.

Date/timePositionNaut miles runAvg speedWind from/ knotsBaromVisibWave heightAir tempDewpointWater temp
2017-Jan-15 11:19N 37°58' W 076°18'6 7.6
2017-Jan-15 10:33N 38°01' W 076°23'7 7.4
2017-Jan-15 09:33N 38°06' W 076°31'2 0.1
2017-Jan-14 07:27N 38°07' W 076°33'6 6.2
2017-Jan-14 06:33N 38°04' W 076°27'7 6.2
2017-Jan-14 05:27N 38°00' W 076°20'  
2017-Jan-11 11:30N 37°59' W 076°19'10 9.0
2017-Jan-11 10:26N 38°04' W 076°29'5 0.1
2017-Jan-09 23:09N 38°08' W 076°33'5 6.8
2017-Jan-09 22:25N 38°05' W 076°28'6 6.7
2017-Jan-09 21:30N 38°01' W 076°22'  
2017-Jan-06 01:23N 37°58' W 076°18'6 7.6
2017-Jan-06 00:33N 38°02' W 076°25'  

Dump ship's entire track history